Time;durP1;ratioP1;P1;durP2;ratioP2;P2;SDS_P1;SDS_P2;PMS_P1;PMS_P2;Temp;Humidity;BMP_temperature;BMP_pressure;BME280_temperature;BME280_humidity;BME280_pressure;Samples;Min_cycle;Max_cycle;Signal;HPM_P1;HPM_P2
2023/07/17 00:02:49;;;;;;;7.37;3.67;;;;;;;23.52;49.22;98933.19;6997295;28;20297;-83
2023/07/17 00:06:11;;;;;;;5.63;3.07;;;;;;;22.80;51.29;98933.00;7002103;28;20661;-83
2023/07/17 00:09:32;;;;;;;4.40;3.00;;;;;;;23.16;49.56;98904.25;7002745;28;20705;-83
2023/07/17 00:12:54;;;;;;;6.80;3.43;;;;;;;23.23;49.66;98924.03;7001959;28;20203;-85
2023/07/17 00:16:15;;;;;;;5.37;3.30;;;;;;;23.41;49.67;98915.09;6998641;28;20327;-85
2023/07/17 00:19:39;;;;;;;4.30;3.10;;;;;;;23.46;49.69;98928.00;6999632;28;20225;-86
2023/07/17 00:23:01;;;;;;;4.27;3.17;;;;;;;23.56;49.09;98939.78;7000363;28;20207;-86
2023/07/17 00:26:22;;;;;;;3.97;2.80;;;;;;;23.16;50.35;98918.00;6999958;28;20208;-84
2023/07/17 00:29:44;;;;;;;7.27;3.50;;;;;;;23.11;49.97;98909.75;6999750;28;20316;-85
2023/07/17 00:33:06;;;;;;;6.27;3.37;;;;;;;23.28;50.20;98925.91;6999148;28;20212;-85
2023/07/17 00:36:29;;;;;;;7.20;3.27;;;;;;;23.13;50.06;98892.97;6998350;28;20691;-85
2023/07/17 00:39:52;;;;;;;6.27;3.20;;;;;;;23.17;50.15;98903.16;6991407;28;20273;-85
2023/07/17 00:43:14;;;;;;;6.00;3.37;;;;;;;23.33;49.56;98925.88;6970920;28;20210;-85
2023/07/17 00:46:36;;;;;;;4.60;3.00;;;;;;;22.98;49.43;98868.28;6970632;28;20350;-85
2023/07/17 00:49:57;;;;;;;6.37;3.23;;;;;;;22.94;50.15;98892.78;6970783;28;20269;-85
2023/07/17 00:53:20;;;;;;;5.83;3.53;;;;;;;23.08;50.65;98904.00;6970574;28;20217;-85
2023/07/17 00:56:43;;;;;;;5.10;3.53;;;;;;;23.11;50.78;98917.16;6997725;28;20229;-85
2023/07/17 01:00:08;;;;;;;5.93;3.10;;;;;;;23.18;50.17;98918.53;6998852;28;20226;-85
2023/07/17 01:03:30;;;;;;;6.03;3.30;;;;;;;23.09;49.88;98922.13;6998392;28;20657;-86
2023/07/17 01:06:51;;;;;;;5.30;3.50;;;;;;;22.67;51.31;98930.81;6997294;28;20284;-85
2023/07/17 01:10:14;;;;;;;4.00;3.20;;;;;;;22.45;50.97;98864.41;6998445;28;20633;-85
2023/07/17 01:13:44;;;;;;;4.93;3.07;;;;;;;22.75;51.13;98924.75;6997963;28;20350;-86
2023/07/17 01:17:05;;;;;;;3.70;2.90;;;;;;;22.73;51.24;98913.22;6996832;28;20701;-84
2023/07/17 01:20:27;;;;;;;5.80;3.50;;;;;;;22.91;50.79;98922.78;6997957;28;20712;-86
2023/07/17 01:23:50;;;;;;;6.17;3.60;;;;;;;22.53;51.56;98918.78;6997952;28;20337;-85
2023/07/17 01:27:11;;;;;;;5.90;3.47;;;;;;;22.73;51.34;98921.44;6997012;28;20589;-83
2023/07/17 01:30:33;;;;;;;5.07;3.63;;;;;;;22.54;50.83;98927.84;6997290;28;20284;-85
2023/07/17 01:33:54;;;;;;;5.90;3.40;;;;;;;22.58;51.37;98945.41;6997549;28;20652;-85
2023/07/17 01:37:16;;;;;;;6.40;3.10;;;;;;;22.47;52.46;98955.63;6996293;28;20232;-86
2023/07/17 01:40:40;;;;;;;5.27;3.70;;;;;;;22.87;50.85;98940.94;6996504;28;20237;-85
2023/07/17 01:44:01;;;;;;;4.03;3.40;;;;;;;22.78;52.42;98937.13;6997431;28;20293;-85
2023/07/17 01:47:23;;;;;;;8.23;3.33;;;;;;;23.12;51.26;98921.59;6996302;28;20251;-85
2023/07/17 01:50:45;;;;;;;5.07;3.30;;;;;;;23.39;50.21;98939.34;6997085;28;20719;-83
2023/07/17 01:54:06;;;;;;;7.47;3.43;;;;;;;23.08;51.30;98939.75;6997121;28;20207;-84
2023/07/17 01:57:29;;;;;;;5.07;3.70;;;;;;;23.06;51.13;98933.72;6996268;28;20363;-86
2023/07/17 02:00:53;;;;;;;4.50;3.27;;;;;;;23.40;50.67;98959.41;6996931;28;20202;-85
2023/07/17 02:04:14;;;;;;;4.97;3.43;;;;;;;23.36;50.60;98963.84;6996577;28;20300;-86
2023/07/17 02:07:36;;;;;;;5.33;3.43;;;;;;;22.66;52.19;98939.38;6995704;28;20212;-85
2023/07/17 02:10:57;;;;;;;5.57;3.50;;;;;;;22.84;52.14;98931.31;6996764;28;20613;-85
2023/07/17 02:14:20;;;;;;;5.20;3.30;;;;;;;23.00;52.32;98935.66;6996562;28;20264;-83
2023/07/17 02:17:41;;;;;;;6.43;3.87;;;;;;;23.23;52.10;98931.44;6995980;28;20642;-85
2023/07/17 02:21:04;;;;;;;4.53;3.50;;;;;;;23.15;51.72;98934.75;6997012;28;20262;-83
2023/07/17 02:24:25;;;;;;;5.27;3.43;;;;;;;23.43;51.15;98948.66;6996469;28;20206;-85
2023/07/17 02:27:47;;;;;;;3.70;3.40;;;;;;;23.51;50.78;98950.00;6995535;28;20209;-85
2023/07/17 02:31:10;;;;;;;6.73;3.33;;;;;;;23.34;51.55;98952.28;6998464;28;20292;-83
2023/07/17 02:34:31;;;;;;;4.80;3.37;;;;;;;23.30;52.21;98949.28;7000552;28;20286;-83
2023/07/17 02:37:53;;;;;;;6.27;3.90;;;;;;;23.38;52.27;98965.22;6997983;28;20738;-83
2023/07/17 02:41:14;;;;;;;5.00;3.43;;;;;;;23.49;51.51;98961.28;6999105;28;20197;-83
2023/07/17 02:44:36;;;;;;;4.93;3.23;;;;;;;23.28;52.76;98957.00;6998595;28;20266;-85
2023/07/17 02:47:59;;;;;;;4.03;3.47;;;;;;;23.54;52.00;98964.00;6995595;28;20275;-85
2023/07/17 02:51:20;;;;;;;4.63;3.60;;;;;;;23.67;51.31;98977.13;6995956;28;20673;-85
2023/07/17 02:54:41;;;;;;;6.40;3.43;;;;;;;23.21;52.16;98980.44;6986278;28;20282;-85
2023/07/17 02:58:04;;;;;;;7.07;3.77;;;;;;;22.27;53.94;98886.13;6967590;28;20236;-85
2023/07/17 03:01:25;;;;;;;5.90;3.63;;;;;;;23.29;52.45;98985.34;6968346;28;20211;-86
2023/07/17 03:04:48;;;;;;;6.00;3.77;;;;;;;23.20;52.94;98987.84;6968815;28;20232;-85
2023/07/17 03:08:10;;;;;;;8.07;3.67;;;;;;;22.96;53.78;98972.25;6967643;28;20254;-86
2023/07/17 03:11:31;;;;;;;5.37;3.37;;;;;;;23.23;53.93;98994.72;6968690;28;20203;-85
2023/07/17 03:14:53;;;;;;;5.60;3.83;;;;;;;23.43;53.10;98986.38;6971891;28;20678;-83
2023/07/17 03:18:14;;;;;;;4.13;3.40;;;;;;;22.88;52.93;98902.16;6976185;28;20861;-83
2023/07/17 03:21:37;;;;;;;5.97;3.40;;;;;;;23.49;52.28;98986.06;6977461;28;20261;-83
2023/07/17 03:24:59;;;;;;;9.40;3.57;;;;;;;23.77;51.56;98999.09;6977071;28;20206;-83
2023/07/17 03:28:20;;;;;;;6.33;3.40;;;;;;;23.75;51.83;99001.31;6976036;28;20307;-83
2023/07/17 03:31:42;;;;;;;5.77;3.20;;;;;;;23.33;53.21;99012.03;6977033;28;20213;-83
2023/07/17 03:35:04;;;;;;;7.33;3.63;;;;;;;22.80;53.89;98966.00;6977102;28;20285;-83
2023/07/17 03:38:28;;;;;;;6.50;3.77;;;;;;;23.11;54.27;99002.44;6999283;28;20279;-86
2023/07/17 03:41:50;;;;;;;3.87;3.47;;;;;;;23.42;53.25;99004.81;7000378;28;20918;-85
2023/07/17 03:45:11;;;;;;;4.53;3.50;;;;;;;23.28;53.47;98975.44;7000782;28;20865;-85
2023/07/17 03:48:33;;;;;;;6.43;3.97;;;;;;;23.02;54.17;98998.63;7000674;28;20257;-86
2023/07/17 03:51:54;;;;;;;6.83;4.23;;;;;;;22.34;56.18;99018.53;6999984;28;20206;-85
2023/07/17 03:55:17;;;;;;;6.70;3.93;;;;;;;22.72;56.09;99012.47;7000268;28;20275;-85
2023/07/17 03:58:39;;;;;;;5.17;3.87;;;;;;;22.64;55.79;98999.28;6999384;28;20235;-86
2023/07/17 04:02:01;;;;;;;8.03;4.40;;;;;;;22.34;56.55;99021.28;6999978;28;20203;-86
2023/07/17 04:05:22;;;;;;;7.60;3.87;;;;;;;22.39;57.19;99015.78;6999494;28;20292;-86
2023/07/17 04:08:44;;;;;;;7.13;3.50;;;;;;;22.75;56.53;99018.25;6998956;28;20286;-86
2023/07/17 04:12:07;;;;;;;5.50;4.10;;;;;;;23.01;55.26;99008.81;6999648;28;20225;-86
2023/07/17 04:15:29;;;;;;;5.53;3.70;;;;;;;22.98;54.89;99025.88;6999527;28;20260;-85
2023/07/17 04:18:50;;;;;;;6.37;3.83;;;;;;;22.81;56.14;99019.03;6999528;28;20232;-86
2023/07/17 04:22:12;;;;;;;6.80;4.17;;;;;;;22.83;55.99;99038.84;6999178;28;20204;-86
2023/07/17 04:25:33;;;;;;;5.97;3.90;;;;;;;23.04;55.67;99041.25;6999165;28;20215;-86
2023/07/17 04:28:56;;;;;;;5.83;3.73;;;;;;;23.05;55.43;99037.41;6998662;28;20225;-84
2023/07/17 04:32:18;;;;;;;7.60;3.83;;;;;;;22.85;55.43;99042.13;6999164;28;20340;-84
2023/07/17 04:35:40;;;;;;;3.87;3.47;;;;;;;23.05;54.78;99036.56;7002407;28;20408;-82
2023/07/17 04:39:04;;;;;;;7.23;3.80;;;;;;;23.46;54.20;99049.94;6996682;28;20230;-83
2023/07/17 04:42:26;;;;;;;4.43;4.00;;;;;;;23.13;54.69;99020.31;6970388;28;20217;-85
2023/07/17 04:45:49;;;;;;;5.47;4.13;;;;;;;23.07;54.86;99037.94;7004180;28;20293;-84
2023/07/17 04:49:10;;;;;;;5.57;3.93;;;;;;;23.26;55.17;99051.94;7012376;28;20226;-83
2023/07/17 04:52:32;;;;;;;5.13;3.60;;;;;;;23.32;54.59;99054.41;7015159;28;20213;-82
2023/07/17 04:55:53;;;;;;;4.50;3.80;;;;;;;23.37;53.55;99056.31;7012938;28;20210;-83
2023/07/17 04:59:16;;;;;;;6.00;3.43;;;;;;;24.03;52.73;99060.38;6999966;28;20323;-85
2023/07/17 05:02:39;;;;;;;5.83;3.73;;;;;;;24.22;51.75;99048.41;6999998;28;20303;-87
2023/07/17 05:06:00;;;;;;;6.07;4.13;;;;;;;24.43;51.00;99055.38;6999562;28;20294;-84
2023/07/17 05:09:22;;;;;;;7.57;3.87;;;;;;;24.52;51.37;99061.94;7000472;28;20253;-84
2023/07/17 05:12:43;;;;;;;5.73;3.97;;;;;;;24.28;51.59;99055.53;6999698;28;20224;-84
2023/07/17 05:16:05;;;;;;;7.43;3.60;;;;;;;24.77;50.42;99061.75;6999700;28;20284;-83
2023/07/17 05:19:28;;;;;;;5.00;3.50;;;;;;;24.97;50.42;99047.75;7000533;28;20896;-83
2023/07/17 05:22:49;;;;;;;4.43;3.27;;;;;;;25.31;48.61;99053.19;7001336;28;20208;-84
2023/07/17 05:26:11;;;;;;;4.87;3.73;;;;;;;25.30;49.52;99046.03;6999326;28;20224;-84
2023/07/17 05:29:33;;;;;;;5.60;3.70;;;;;;;25.24;49.19;99030.66;6998737;28;20306;-85
2023/07/17 05:32:54;;;;;;;3.93;3.60;;;;;;;25.44;47.61;98994.50;6997374;28;20225;-85
2023/07/17 05:36:17;;;;;;;7.10;3.30;;;;;;;25.10;47.84;99016.69;6996239;28;20231;-85
2023/07/17 05:39:39;;;;;;;4.37;2.90;;;;;;;25.62;46.84;99038.72;6996209;28;20279;-85
2023/07/17 05:43:00;;;;;;;5.40;3.70;;;;;;;25.72;45.92;98960.41;6997620;28;20685;-86
2023/07/17 05:46:22;;;;;;;4.53;3.50;;;;;;;27.03;43.56;99042.81;6996834;28;20544;-85
2023/07/17 05:49:44;;;;;;;6.60;3.30;;;;;;;27.35;42.24;99057.44;6997459;28;20717;-86
2023/07/17 05:53:06;;;;;;;6.40;3.73;;;;;;;27.85;41.21;99053.59;6997024;28;20667;-86
2023/07/17 05:56:28;;;;;;;6.47;3.27;;;;;;;28.17;39.65;99049.81;6996726;28;20363;-85
2023/07/17 05:59:50;;;;;;;5.47;3.03;;;;;;;28.12;40.34;99063.81;6997339;28;20279;-86
2023/07/17 06:03:11;;;;;;;5.80;3.13;;;;;;;28.14;40.74;99064.34;6997153;28;20236;-86
2023/07/17 06:06:33;;;;;;;8.87;2.80;;;;;;;28.67;39.42;99054.97;6999822;28;20250;-86
2023/07/17 06:09:56;;;;;;;6.80;3.07;;;;;;;28.12;40.29;99075.72;7001286;28;20402;-85
2023/07/17 06:13:19;;;;;;;7.93;3.13;;;;;;;28.88;38.72;99078.31;6996847;28;20294;-85
2023/07/17 06:16:40;;;;;;;4.77;3.00;;;;;;;29.26;37.39;99070.38;6999935;28;20708;-83
2023/07/17 06:20:04;;;;;;;4.13;3.33;;;;;;;28.61;39.01;99081.22;7001602;28;20222;-82
2023/07/17 06:23:25;;;;;;;5.03;3.17;;;;;;;29.61;37.60;99080.53;7004215;28;20222;-85
2023/07/17 06:26:48;;;;;;;5.67;3.07;;;;;;;29.77;36.20;99067.81;7003581;28;20295;-83
2023/07/17 06:30:11;;;;;;;4.33;2.67;;;;;;;30.11;35.55;99079.00;7004197;28;20256;-83
2023/07/17 06:33:34;;;;;;;5.47;3.13;;;;;;;30.03;35.37;99052.81;6976624;28;20345;-83
2023/07/17 06:36:56;;;;;;;5.43;3.33;;;;;;;28.37;38.20;99093.78;6976108;28;20213;-84
2023/07/17 06:40:18;;;;;;;5.40;3.07;;;;;;;28.99;37.78;99090.81;6979321;28;20708;-84
2023/07/17 06:43:40;;;;;;;8.43;3.17;;;;;;;28.75;37.33;99029.25;6980389;28;20257;-84
2023/07/17 06:47:02;;;;;;;5.43;2.83;;;;;;;28.62;37.93;99079.28;6980769;28;20232;-83
2023/07/17 06:50:24;;;;;;;3.73;3.10;;;;;;;28.93;37.74;99078.19;7000703;28;20232;-84
2023/07/17 06:53:45;;;;;;;6.73;3.10;;;;;;;28.48;38.53;99084.09;7013239;28;20329;-84
2023/07/17 06:57:07;;;;;;;5.50;3.50;;;;;;;28.70;37.16;99084.06;7012833;28;20211;-84
2023/07/17 07:00:30;;;;;;;6.23;3.13;;;;;;;28.37;37.12;98950.34;7012897;28;20224;-84
2023/07/17 07:03:52;;;;;;;5.50;3.03;;;;;;;29.40;36.85;99090.53;7013182;28;20208;-82
2023/07/17 07:07:13;;;;;;;6.07;3.10;;;;;;;28.65;36.16;99012.84;7013906;28;20207;-83
2023/07/17 07:10:35;;;;;;;5.60;3.40;;;;;;;29.25;35.76;99054.88;7013022;28;20233;-83
2023/07/17 07:13:56;;;;;;;3.93;3.13;;;;;;;30.12;35.04;99075.09;7014872;28;20199;-83
2023/07/17 07:17:22;;;;;;;5.53;3.40;;;;;;;30.27;33.76;99086.59;7013018;28;20221;-83
2023/07/17 07:20:45;;;;;;;4.97;3.50;;;;;;;30.12;34.44;99092.59;7012427;28;20240;-84
2023/07/17 07:24:07;;;;;;;5.00;3.10;;;;;;;30.31;33.34;99086.75;7015384;28;20228;-83
2023/07/17 07:27:30;;;;;;;5.53;3.40;;;;;;;30.35;33.43;99082.13;7016259;28;20220;-83
2023/07/17 07:30:55;;;;;;;4.83;3.40;;;;;;;30.56;33.13;99060.88;7012188;28;20217;-83
2023/07/17 07:34:18;;;;;;;4.27;3.00;;;;;;;31.38;32.11;99076.09;7011958;28;20238;-83
2023/07/17 07:37:40;;;;;;;6.40;3.40;;;;;;;31.62;32.21;99079.13;7010689;28;20222;-83
2023/07/17 07:41:02;;;;;;;6.17;3.47;;;;;;;32.01;30.68;99077.97;7010619;28;20255;-83
2023/07/17 07:44:24;;;;;;;4.30;3.07;;;;;;;31.37;32.25;99082.84;7012438;28;20206;-83
2023/07/17 07:47:46;;;;;;;6.73;3.93;;;;;;;31.40;30.66;99084.97;7013585;28;20208;-83
2023/07/17 07:51:08;;;;;;;6.93;3.83;;;;;;;31.05;29.76;99074.22;7011494;28;20270;-83
2023/07/17 07:54:40;;;;;;;;;;;;;;;;;;;;;
2023/07/17 07:58:02;;;;;;;7.60;4.57;;;;;;;30.76;28.56;99083.31;7005438;28;20735;-86
2023/07/17 08:01:23;;;;;;;5.50;4.20;;;;;;;30.25;29.22;99091.63;7003404;28;20224;-82
2023/07/17 08:04:45;;;;;;;6.97;4.43;;;;;;;30.69;28.91;99090.53;7009022;28;20578;-83
2023/07/17 08:08:08;;;;;;;10.13;4.47;;;;;;;31.34;27.87;99065.97;7006928;28;20218;-82
2023/07/17 08:11:29;;;;;;;7.87;4.53;;;;;;;31.33;28.40;99090.25;7006935;28;20282;-83
2023/07/17 08:14:51;;;;;;;7.10;4.57;;;;;;;32.05;26.01;99090.06;7006492;28;20270;-83
2023/07/17 08:18:13;;;;;;;6.33;4.27;;;;;;;32.74;25.15;99077.22;7003901;28;20287;-85
2023/07/17 08:21:34;;;;;;;6.47;4.90;;;;;;;31.90;26.12;99083.09;7000263;28;20217;-85
2023/07/17 08:24:57;;;;;;;7.70;5.40;;;;;;;31.98;25.42;99095.34;7000344;28;20202;-85
2023/07/17 08:28:19;;;;;;;5.30;4.20;;;;;;;32.76;24.55;99078.53;6999929;28;20355;-85
2023/07/17 08:31:41;;;;;;;6.90;4.53;;;;;;;32.89;23.91;99071.84;6989946;28;20768;-85
2023/07/17 08:35:03;;;;;;;9.70;5.10;;;;;;;32.50;25.19;99074.31;6974387;28;20347;-85
2023/07/17 08:38:25;;;;;;;5.73;4.90;;;;;;;32.55;25.56;99083.28;6992125;28;20235;-85
2023/07/17 08:41:50;;;;;;;7.03;4.37;;;;;;;32.82;24.94;99084.72;6999235;28;20745;-84
2023/07/17 08:45:13;;;;;;;7.57;4.30;;;;;;;31.78;25.17;99001.31;7002524;28;20201;-83
2023/07/17 08:48:34;;;;;;;6.67;4.30;;;;;;;31.57;25.85;99089.66;7000509;28;20228;-84
2023/07/17 08:51:57;;;;;;;6.43;4.93;;;;;;;32.92;24.39;99082.34;7001870;28;20205;-83
2023/07/17 08:55:19;;;;;;;8.00;3.70;;;;;;;31.92;24.85;99086.38;7001230;28;20244;-84
2023/07/17 08:58:43;;;;;;;6.53;4.47;;;;;;;32.29;24.59;99049.22;7002812;28;20299;-82
2023/07/17 09:02:05;;;;;;;6.90;4.00;;;;;;;32.03;24.59;99092.38;7000214;28;20232;-82
2023/07/17 09:05:27;;;;;;;10.83;4.90;;;;;;;32.93;23.97;99086.75;6986332;28;20205;-82
2023/07/17 09:08:48;;;;;;;6.23;4.23;;;;;;;32.45;24.32;99094.06;6985490;28;20279;-83
2023/07/17 09:12:11;;;;;;;9.03;6.17;;;;;;;32.39;25.97;99092.63;6971594;28;20569;-85
2023/07/17 09:15:34;;;;;;;8.33;5.80;;;;;;;32.13;25.66;99092.78;6988325;28;20733;-84
2023/07/17 09:18:56;;;;;;;8.63;4.50;;;;;;;31.95;26.36;99094.06;7002690;28;20609;-84
2023/07/17 09:22:17;;;;;;;6.37;4.30;;;;;;;32.27;25.15;99096.19;7001264;28;20296;-80
2023/07/17 09:25:45;;;;;;;8.20;4.73;;;;;;;31.67;25.48;99028.72;6992150;28;20215;-83
2023/07/17 09:29:06;;;;;;;10.83;6.23;;;;;;;30.90;25.68;99008.72;6998800;28;20271;-84
2023/07/17 09:32:32;;;;;;;8.97;5.67;;;;;;;31.26;26.00;99098.28;6999135;28;20681;-82
2023/07/17 09:35:57;;;;;;;6.53;4.30;;;;;;;31.34;25.26;99105.81;6998935;28;20295;-86
2023/07/17 09:39:19;;;;;;;6.73;4.17;;;;;;;31.90;24.19;99093.44;6998084;28;20267;-82
2023/07/17 09:42:42;;;;;;;8.13;3.90;;;;;;;32.55;24.34;99082.50;6998373;28;20291;-83
2023/07/17 09:46:03;;;;;;;6.17;3.90;;;;;;;32.28;23.61;99080.25;6994063;28;20669;-83
2023/07/17 09:49:26;;;;;;;5.33;3.87;;;;;;;32.99;23.23;99088.16;6999593;28;20224;-84
2023/07/17 09:52:50;;;;;;;5.30;4.00;;;;;;;33.73;22.24;99071.97;7000181;28;20217;-82
2023/07/17 09:56:14;;;;;;;5.93;4.20;;;;;;;33.27;22.69;99080.81;6999185;28;20618;-82
2023/07/17 09:59:39;;;;;;;6.07;4.10;;;;;;;32.36;23.77;99076.59;7000356;28;20283;-83
2023/07/17 10:03:06;;;;;;;5.67;4.00;;;;;;;32.30;23.42;99062.00;6981370;28;20254;-83
2023/07/17 10:06:29;;;;;;;6.17;3.80;;;;;;;32.94;23.08;99074.41;7000049;28;20201;-84
2023/07/17 10:09:54;;;;;;;7.23;4.07;;;;;;;33.15;23.57;99074.34;7002701;28;20368;-84
2023/07/17 10:13:16;;;;;;;6.00;3.80;;;;;;;33.72;22.69;99047.97;6983899;28;20283;-83
2023/07/17 10:16:37;;;;;;;7.90;4.40;;;;;;;32.85;24.24;99070.88;6996260;28;20781;-83
2023/07/17 10:20:00;;;;;;;6.60;4.53;;;;;;;32.87;24.23;99051.81;6992441;28;20936;-82
2023/07/17 10:23:30;;;;;;;4.47;3.77;;;;;;;31.89;24.67;99075.88;6996525;28;20355;-84
2023/07/17 10:26:52;;;;;;;5.30;4.80;;;;;;;31.67;24.91;99053.81;7003305;28;20193;-82
2023/07/17 10:30:27;;;;;;;8.03;4.20;;;;;;;31.59;25.38;99073.38;7003752;28;20302;-83
2023/07/17 10:33:50;;;;;;;5.30;4.20;;;;;;;31.84;24.44;99036.22;7006667;28;20196;-83
2023/07/17 10:37:18;;;;;;;4.57;3.67;;;;;;;30.95;25.88;99064.25;7014113;28;20199;-82
2023/07/17 10:40:41;;;;;;;5.93;4.37;;;;;;;32.63;23.79;99042.50;7010260;28;20387;-83
2023/07/17 10:44:06;;;;;;;5.47;4.07;;;;;;;32.81;24.60;99008.50;7008666;28;20287;-82
2023/07/17 10:47:28;;;;;;;5.23;3.90;;;;;;;33.71;22.87;99037.97;7009378;28;20209;-83
2023/07/17 10:50:51;;;;;;;6.57;4.23;;;;;;;34.07;22.75;99051.13;7007060;28;20245;-82
2023/07/17 10:54:13;;;;;;;6.77;4.23;;;;;;;32.97;23.25;99012.22;7005426;28;20198;-82
2023/07/17 10:57:37;;;;;;;6.07;4.37;;;;;;;31.97;23.79;99046.31;6998750;28;20339;-82
2023/07/17 11:01:04;;;;;;;5.27;4.10;;;;;;;32.82;23.88;99035.25;7007339;28;20217;-82
2023/07/17 11:04:26;;;;;;;5.37;4.23;;;;;;;32.84;23.56;99035.72;6997176;28;20301;-83
2023/07/17 11:07:47;;;;;;;4.37;3.97;;;;;;;32.76;24.03;99022.69;7007757;28;20254;-82
2023/07/17 11:11:09;;;;;;;5.77;4.37;;;;;;;31.69;25.20;99015.28;7009587;28;20235;-82
2023/07/17 11:14:32;;;;;;;6.33;4.20;;;;;;;31.75;25.67;99029.88;7018806;28;20209;-82
2023/07/17 11:17:53;;;;;;;6.43;4.10;;;;;;;31.72;25.74;99036.13;7021948;28;20226;-83
2023/07/17 11:21:16;;;;;;;6.93;4.10;;;;;;;31.46;25.83;99038.22;7020387;28;20272;-83
2023/07/17 11:24:38;;;;;;;5.03;4.47;;;;;;;31.66;25.25;99018.75;7007694;28;20238;-84
2023/07/17 11:28:01;;;;;;;5.40;4.33;;;;;;;31.94;25.20;99027.44;6994317;28;20227;-84
2023/07/17 11:31:26;;;;;;;5.23;4.20;;;;;;;32.12;25.09;99034.53;6976285;28;20268;-81
2023/07/17 11:34:53;;;;;;;6.13;4.50;;;;;;;32.68;24.19;99029.16;7005370;28;20235;-82
2023/07/17 11:38:16;;;;;;;5.87;4.10;;;;;;;32.68;24.37;99029.16;6998387;28;20229;-83
2023/07/17 11:41:42;;;;;;;5.27;4.00;;;;;;;33.13;23.73;98973.28;7002918;28;20311;-82
2023/07/17 11:45:06;;;;;;;4.97;4.10;;;;;;;31.10;25.43;98924.44;7002856;28;20332;-83
2023/07/17 11:48:32;;;;;;;7.80;3.70;;;;;;;32.58;24.27;99021.19;7000448;28;20263;-82
2023/07/17 11:51:54;;;;;;;4.50;4.00;;;;;;;31.44;24.77;98929.03;7002630;28;20231;-82
2023/07/17 11:55:20;;;;;;;5.80;4.07;;;;;;;32.39;24.16;98979.00;7002543;28;20201;-81
2023/07/17 11:58:51;;;;;;;9.23;4.60;;;;;;;34.03;23.30;99011.00;6975528;28;20226;-84
2023/07/17 12:02:14;;;;;;;6.53;4.57;;;;;;;32.81;23.07;99002.06;6973666;28;20195;-83
2023/07/17 12:05:37;;;;;;;6.00;4.10;;;;;;;34.01;22.10;99004.97;6999428;28;20670;-81
2023/07/17 12:08:59;;;;;;;7.13;4.23;;;;;;;33.95;22.32;98973.59;6998894;28;20279;-83
2023/07/17 12:12:20;;;;;;;8.23;4.90;;;;;;;33.14;23.81;98995.25;6989893;28;20771;-83
2023/07/17 12:15:42;;;;;;;4.93;4.43;;;;;;;32.42;24.69;98986.69;6984776;28;20293;-84
2023/07/17 12:19:04;;;;;;;5.00;4.10;;;;;;;32.75;24.46;98976.31;6985630;28;20750;-86
2023/07/17 12:22:27;;;;;;;5.93;4.20;;;;;;;31.83;25.90;98964.88;6994361;28;20216;-84
2023/07/17 12:25:48;;;;;;;5.40;4.57;;;;;;;32.28;25.28;98988.97;6994049;28;20317;-84
2023/07/17 12:29:12;;;;;;;4.57;4.13;;;;;;;31.95;25.17;98909.16;7000690;28;20220;-84
2023/07/17 12:32:33;;;;;;;7.13;4.50;;;;;;;32.39;24.35;98948.31;7000587;28;20252;-84
2023/07/17 12:35:55;;;;;;;7.43;4.53;;;;;;;32.98;24.06;98969.19;6999738;28;20347;-84
2023/07/17 12:39:19;;;;;;;5.27;4.33;;;;;;;32.64;24.98;98936.03;7000442;28;20291;-84
2023/07/17 12:42:41;;;;;;;5.97;4.47;;;;;;;33.42;24.28;98971.09;6994997;28;20302;-84
2023/07/17 12:46:02;;;;;;;5.67;3.97;;;;;;;32.34;25.05;98968.06;6972231;28;20875;-84
2023/07/17 12:49:24;;;;;;;6.03;4.07;;;;;;;31.88;24.90;98961.84;6972020;28;20363;-84
2023/07/17 12:52:45;;;;;;;6.73;4.47;;;;;;;32.55;25.60;98956.84;6972109;28;20253;-85
2023/07/17 12:56:08;;;;;;;4.70;4.13;;;;;;;32.71;25.64;98958.63;6982100;28;20212;-84
2023/07/17 12:59:30;;;;;;;7.00;4.27;;;;;;;32.57;24.26;98960.09;6999608;28;20272;-84
2023/07/17 13:02:51;;;;;;;5.60;4.10;;;;;;;32.02;25.73;98952.06;6995041;28;20295;-84
2023/07/17 13:06:13;;;;;;;5.23;4.50;;;;;;;32.50;25.79;98954.25;6998638;28;20283;-84
2023/07/17 13:09:34;;;;;;;5.73;4.37;;;;;;;31.75;27.22;98960.97;6999775;28;20906;-84
2023/07/17 13:12:58;;;;;;;7.07;4.50;;;;;;;31.06;26.76;98956.91;6999435;28;20784;-86
2023/07/17 13:16:20;;;;;;;7.33;4.33;;;;;;;31.98;26.81;98961.44;6994067;28;20870;-84
2023/07/17 13:19:43;;;;;;;7.00;4.20;;;;;;;32.26;25.72;98963.34;6995735;28;20751;-84
2023/07/17 13:23:04;;;;;;;6.40;4.60;;;;;;;31.56;26.12;98923.53;7001817;28;20207;-85
2023/07/17 13:26:29;;;;;;;7.67;4.50;;;;;;;32.13;26.31;98956.06;6996875;28;20255;-85
2023/07/17 13:29:52;;;;;;;5.50;4.10;;;;;;;31.89;25.81;98957.94;6998499;28;20226;-86
2023/07/17 13:33:14;;;;;;;11.00;4.10;;;;;;;32.21;26.09;98904.13;6997167;28;20248;-85
2023/07/17 13:36:37;;;;;;;8.67;4.80;;;;;;;31.18;27.10;98847.50;6997456;28;20204;-86
2023/07/17 13:39:59;;;;;;;7.20;4.37;;;;;;;31.15;26.49;98851.81;6998103;28;20232;-85
2023/07/17 13:43:21;;;;;;;6.37;4.23;;;;;;;32.01;26.34;98944.84;6997967;28;20211;-85
2023/07/17 13:46:47;;;;;;;7.70;4.70;;;;;;;32.04;26.67;98946.13;6994928;28;20211;-84
2023/07/17 13:50:09;;;;;;;6.40;4.40;;;;;;;32.03;27.25;98964.03;6994051;28;20234;-87
2023/07/17 13:53:30;;;;;;;5.07;4.40;;;;;;;31.76;27.62;98956.22;6994495;28;20203;-81
2023/07/17 13:56:52;;;;;;;6.27;4.50;;;;;;;31.92;27.46;98952.47;7012415;28;20368;-87
2023/07/17 14:00:14;;;;;;;7.87;4.00;;;;;;;31.92;27.64;98962.81;7012251;28;20323;-86
2023/07/17 14:03:37;;;;;;;9.37;4.57;;;;;;;31.80;27.56;98960.78;6998699;28;20258;-85
2023/07/17 14:06:59;;;;;;;6.60;4.60;;;;;;;32.14;27.28;98965.25;7000655;28;20291;-84
2023/07/17 14:10:22;;;;;;;5.00;3.77;;;;;;;31.89;27.41;98936.41;6976984;28;20893;-84
2023/07/17 14:13:45;;;;;;;7.67;4.80;;;;;;;31.97;28.21;98957.84;6971142;28;20208;-84
2023/07/17 14:17:07;;;;;;;9.17;4.40;;;;;;;32.14;27.02;98963.28;6970369;28;20245;-84
2023/07/17 14:20:30;;;;;;;4.97;4.00;;;;;;;31.74;27.15;98955.75;6969923;28;20283;-84
2023/07/17 14:23:51;;;;;;;5.13;4.30;;;;;;;31.41;27.97;98961.19;6970451;28;20287;-84
2023/07/17 14:27:13;;;;;;;5.07;4.20;;;;;;;30.74;28.29;98965.88;6986168;28;20276;-84
2023/07/17 14:30:34;;;;;;;8.10;3.90;;;;;;;30.97;28.91;98964.50;6997661;28;20315;-84
2023/07/17 14:33:56;;;;;;;6.80;4.53;;;;;;;31.93;27.16;98954.13;6997839;28;20213;-84
2023/07/17 14:37:19;;;;;;;6.20;4.50;;;;;;;31.93;27.43;98948.53;6997629;28;20657;-84
2023/07/17 14:40:40;;;;;;;6.40;4.20;;;;;;;32.33;26.87;98946.06;6996886;28;20330;-84
2023/07/17 14:44:02;;;;;;;7.23;4.23;;;;;;;31.49;27.67;98953.91;6997180;28;20293;-84
2023/07/17 14:47:23;;;;;;;5.00;3.80;;;;;;;30.99;28.09;98942.69;6996716;28;20256;-83
2023/07/17 14:50:45;;;;;;;7.70;4.20;;;;;;;31.99;28.07;98944.38;7000544;28;20284;-84
2023/07/17 14:54:08;;;;;;;7.03;4.10;;;;;;;32.01;26.94;98922.53;7001210;28;20215;-84
2023/07/17 14:57:29;;;;;;;8.53;4.20;;;;;;;31.48;28.07;98941.94;7004915;28;20347;-84
2023/07/17 15:00:51;;;;;;;7.67;4.60;;;;;;;31.17;28.44;98924.72;7001733;28;20772;-83
2023/07/17 15:04:12;;;;;;;7.23;4.57;;;;;;;31.29;28.36;98940.75;6999826;28;20229;-84
2023/07/17 15:07:34;;;;;;;6.53;4.17;;;;;;;30.84;28.87;98962.72;6998198;28;20208;-85
2023/07/17 15:10:57;;;;;;;5.63;4.43;;;;;;;30.73;29.02;98946.72;6996031;28;20198;-84
2023/07/17 15:14:18;;;;;;;6.47;4.13;;;;;;;31.14;27.93;98947.69;7006278;28;20319;-84
2023/07/17 15:17:40;;;;;;;8.37;4.47;;;;;;;31.97;27.20;98943.09;7005260;28;20214;-85
2023/07/17 15:21:02;;;;;;;5.00;3.70;;;;;;;32.28;26.77;98921.16;7006028;28;20403;-85
2023/07/17 15:24:23;;;;;;;7.37;4.17;;;;;;;31.97;27.22;98943.09;7000455;28;20206;-84
2023/07/17 15:27:46;;;;;;;7.13;4.83;;;;;;;32.16;26.94;98921.06;7004683;28;20300;-82
2023/07/17 15:31:11;;;;;;;8.03;4.00;;;;;;;31.84;27.63;98930.25;7005905;28;20233;-82
2023/07/17 15:34:33;;;;;;;5.63;4.03;;;;;;;32.63;27.01;98931.63;7005487;28;20208;-84
2023/07/17 15:37:54;;;;;;;7.50;4.10;;;;;;;32.72;26.07;98932.31;7006166;28;20315;-84
2023/07/17 15:41:16;;;;;;;6.10;4.03;;;;;;;32.27;27.03;98930.69;7004168;28;20232;-82
2023/07/17 15:44:38;;;;;;;5.53;4.07;;;;;;;31.02;27.66;98939.22;7004914;28;20245;-83
2023/07/17 15:48:00;;;;;;;5.87;4.20;;;;;;;31.94;27.02;98929.81;6994802;28;20281;-81
2023/07/17 15:51:22;;;;;;;5.10;4.20;;;;;;;32.00;27.33;98934.03;7007476;28;20302;-82
2023/07/17 15:54:43;;;;;;;7.93;4.57;;;;;;;32.03;27.31;98931.38;6999278;28;20382;-82